Time;durP1;ratioP1;P1;durP2;ratioP2;P2;SDS_P1;SDS_P2;PMS_P1;PMS_P2;Temp;Humidity;BMP_temperature;BMP_pressure;BME280_temperature;BME280_humidity;BME280_pressure;Samples;Min_cycle;Max_cycle;Signal;HPM_P1;HPM_P2
2022/06/15 00:00:37;;;;;;;2.57;2.00;;;;;;;-141.29;100.00;58932.97;5093935;28;20603;-73
2022/06/15 00:03:05;;;;;;;3.17;2.47;;;;;;;-141.29;100.00;58932.97;5094649;28;20206;-74
2022/06/15 00:05:36;;;;;;;3.87;2.40;;;;;;;-141.29;100.00;58932.97;5095718;28;20202;-74
2022/06/15 00:08:03;;;;;;;3.83;2.10;;;;;;;-141.29;100.00;58932.97;5096520;28;20199;-75
2022/06/15 00:10:32;;;;;;;2.63;2.27;;;;;;;-141.29;100.00;58932.97;5094160;28;20263;-73
2022/06/15 00:13:00;;;;;;;5.53;2.70;;;;;;;-141.29;100.00;58932.97;5093670;28;20558;-73
2022/06/15 00:15:27;;;;;;;4.10;2.30;;;;;;;-141.29;100.00;58932.97;5100642;28;20202;-75
2022/06/15 00:17:54;;;;;;;10.53;2.23;;;;;;;-141.29;100.00;58932.97;5094525;28;20199;-71
2022/06/15 00:20:21;;;;;;;4.30;2.53;;;;;;;-141.29;100.00;58932.97;5094124;28;20230;-73
2022/06/15 00:22:50;;;;;;;3.97;2.10;;;;;;;-141.29;100.00;58932.97;5093216;28;20200;-74
2022/06/15 00:25:17;;;;;;;4.87;2.07;;;;;;;-141.29;100.00;58932.97;5093066;28;20196;-73
2022/06/15 00:27:44;;;;;;;3.17;2.10;;;;;;;-141.29;100.00;58932.97;5093156;28;20671;-73
2022/06/15 00:30:13;;;;;;;2.80;2.20;;;;;;;-141.29;100.00;58932.97;5092997;28;20195;-74
2022/06/15 00:32:40;;;;;;;2.97;2.20;;;;;;;-141.29;100.00;58932.97;5092990;28;20191;-74
2022/06/15 00:35:08;;;;;;;5.87;2.30;;;;;;;-141.29;100.00;58932.97;5092800;28;20199;-73
2022/06/15 00:37:36;;;;;;;3.03;2.10;;;;;;;-141.29;100.00;58932.97;5092899;28;20235;-73
2022/06/15 00:40:07;;;;;;;2.47;1.70;;;;;;;-141.29;100.00;58932.97;5092994;28;20319;-73
2022/06/15 00:42:34;;;;;;;7.27;2.00;;;;;;;-141.29;100.00;58932.97;5092738;28;20253;-75
2022/06/15 00:45:02;;;;;;;3.10;2.10;;;;;;;-141.29;100.00;58932.97;5093053;28;20663;-73
2022/06/15 00:47:32;;;;;;;3.63;1.97;;;;;;;-141.29;100.00;58932.97;5092903;28;20677;-73
2022/06/15 00:50:03;;;;;;;2.67;2.10;;;;;;;-141.29;100.00;58932.97;5092607;28;20200;-74
2022/06/15 00:52:35;;;;;;;2.80;2.03;;;;;;;-141.29;100.00;58932.97;5093053;28;20196;-73
2022/06/15 00:55:07;;;;;;;4.17;2.30;;;;;;;-141.29;100.00;58932.97;5093227;28;20196;-74
2022/06/15 00:57:34;;;;;;;5.17;2.10;;;;;;;-141.29;100.00;58932.97;5093441;28;20234;-74
2022/06/15 01:00:06;;;;;;;4.30;2.13;;;;;;;-141.29;100.00;58932.97;5093308;28;20242;-73
2022/06/15 01:02:37;;;;;;;2.43;2.20;;;;;;;-141.29;100.00;58932.97;5093516;28;20214;-73
2022/06/15 01:05:09;;;;;;;2.47;1.87;;;;;;;-141.29;100.00;58932.97;5074191;28;20260;-74
2022/06/15 01:08:02;;;;;;;4.27;2.10;;;;;;;-141.29;100.00;58932.97;5092987;28;20195;-77
2022/06/15 01:10:43;;;;;;;5.60;2.40;;;;;;;-141.29;100.00;58932.97;5092431;28;20200;-73
2022/06/15 01:13:28;;;;;;;2.20;2.00;;;;;;;-141.29;100.00;58932.97;5092962;28;20217;-73
2022/06/15 01:16:03;;;;;;;3.07;2.20;;;;;;;-141.29;100.00;58932.97;5093097;28;20203;-74
2022/06/15 01:18:37;;;;;;;2.50;2.00;;;;;;;-141.29;100.00;58932.97;5092596;28;20198;-74
2022/06/15 01:21:18;;;;;;;5.30;2.30;;;;;;;-141.29;100.00;58932.97;5092523;28;20603;-75
2022/06/15 01:24:11;;;;;;;2.70;1.90;;;;;;;-141.29;100.00;58932.97;5092147;28;20202;-75
2022/06/15 01:27:00;;;;;;;3.53;2.10;;;;;;;-141.29;100.00;58932.97;5092078;28;20196;-75
2022/06/15 01:29:51;;;;;;;4.67;2.27;;;;;;;-141.29;100.00;58932.97;5092759;28;20207;-74
2022/06/15 01:32:25;;;;;;;2.47;2.10;;;;;;;-141.29;100.00;58932.97;5053809;28;20684;-73
2022/06/15 01:35:02;;;;;;;3.23;2.10;;;;;;;-141.29;100.00;58932.97;5096466;28;20211;-75
2022/06/15 01:37:35;;;;;;;4.73;2.10;;;;;;;-141.29;100.00;58932.97;5094154;28;20235;-72
2022/06/15 01:40:10;;;;;;;4.77;1.87;;;;;;;-141.29;100.00;58932.97;5092300;28;20223;-72
2022/06/15 01:42:42;;;;;;;3.20;2.10;;;;;;;-141.29;100.00;58932.97;5092143;28;20202;-74
2022/06/15 01:45:12;;;;;;;3.23;2.27;;;;;;;-141.29;100.00;58932.97;5092380;28;20238;-74
2022/06/15 01:47:44;;;;;;;6.00;2.17;;;;;;;-141.29;100.00;58932.97;5092078;28;20206;-74
2022/06/15 01:50:16;;;;;;;2.43;2.20;;;;;;;-141.29;100.00;58932.97;5092075;28;20204;-73
2022/06/15 01:52:47;;;;;;;3.07;1.97;;;;;;;-141.29;100.00;58932.97;5091989;28;20196;-74
2022/06/15 01:55:20;;;;;;;4.93;2.23;;;;;;;-141.29;100.00;58932.97;5092176;28;20580;-73
2022/06/15 01:57:52;;;;;;;3.30;2.20;;;;;;;-141.29;100.00;58932.97;5092906;28;20202;-72
2022/06/15 02:00:20;;;;;;;2.47;1.90;;;;;;;-141.29;100.00;58932.97;5092255;28;20227;-73
2022/06/15 02:02:58;;;;;;;3.70;2.03;;;;;;;-141.29;100.00;58932.97;5091561;28;20282;-75
2022/06/15 02:05:37;;;;;;;4.30;2.40;;;;;;;-141.29;100.00;58932.97;5091724;28;20191;-75
2022/06/15 02:08:11;;;;;;;6.57;2.23;;;;;;;-141.29;100.00;58932.97;5091510;28;20662;-73
2022/06/15 02:10:48;;;;;;;1.93;1.73;;;;;;;-141.29;100.00;58932.97;5092033;28;20213;-74
2022/06/15 02:13:21;;;;;;;2.90;1.80;;;;;;;-141.29;100.00;58932.97;5092020;28;20195;-74
2022/06/15 02:15:53;;;;;;;3.77;2.17;;;;;;;-141.29;100.00;58932.97;5094445;28;20199;-74
2022/06/15 02:18:25;;;;;;;2.63;2.33;;;;;;;-141.29;100.00;58932.97;5096434;28;20242;-73
2022/06/15 02:20:57;;;;;;;4.33;2.10;;;;;;;-141.29;100.00;58932.97;5095660;28;20702;-73
2022/06/15 02:23:26;;;;;;;4.37;2.13;;;;;;;-141.29;100.00;58932.97;5095768;28;20196;-73
2022/06/15 02:25:56;;;;;;;2.97;1.90;;;;;;;-141.29;100.00;58932.97;5095532;28;20567;-74
2022/06/15 02:28:29;;;;;;;6.67;2.53;;;;;;;-141.29;100.00;58932.97;5095512;28;20199;-73
2022/06/15 02:30:57;;;;;;;2.63;2.00;;;;;;;-141.29;100.00;58932.97;5095543;28;20689;-73
2022/06/15 02:33:29;;;;;;;3.53;2.47;;;;;;;-141.29;100.00;58932.97;5095143;28;20198;-74
2022/06/15 02:35:57;;;;;;;2.47;2.17;;;;;;;-141.29;100.00;58932.97;5095536;28;20251;-73
2022/06/15 02:38:24;;;;;;;2.63;1.83;;;;;;;-141.29;100.00;58932.97;5095134;28;20227;-74
2022/06/15 02:40:52;;;;;;;5.30;2.10;;;;;;;-141.29;100.00;58932.97;5095354;28;20238;-72
2022/06/15 02:43:22;;;;;;;3.87;2.50;;;;;;;-141.29;100.00;58932.97;5095094;28;20195;-74
2022/06/15 02:45:51;;;;;;;6.87;2.70;;;;;;;-141.29;100.00;58932.97;5095224;28;20226;-73
2022/06/15 02:48:20;;;;;;;4.10;2.20;;;;;;;-141.29;100.00;58932.97;5095180;28;20206;-73
2022/06/15 02:50:54;;;;;;;10.97;2.63;;;;;;;-141.29;100.00;58932.97;5094937;28;20209;-74
2022/06/15 02:53:25;;;;;;;3.53;2.47;;;;;;;-141.29;100.00;58932.97;5095959;28;20229;-73
2022/06/15 02:55:54;;;;;;;4.77;2.53;;;;;;;-141.29;100.00;58932.97;5095046;28;20206;-73
2022/06/15 02:58:27;;;;;;;7.57;2.40;;;;;;;-141.29;100.00;58932.97;5094995;28;20196;-73
2022/06/15 03:00:54;;;;;;;6.67;2.53;;;;;;;-141.29;100.00;58932.97;5095762;28;20238;-74
2022/06/15 03:03:22;;;;;;;6.03;2.20;;;;;;;-141.29;100.00;58932.97;5095517;28;20203;-73
2022/06/15 03:05:52;;;;;;;10.17;2.53;;;;;;;-141.29;100.00;58932.97;5095769;28;20303;-73
2022/06/15 03:08:20;;;;;;;6.20;2.70;;;;;;;-141.29;100.00;58932.97;5095371;28;20192;-75
2022/06/15 03:10:49;;;;;;;7.50;2.30;;;;;;;-141.29;100.00;58932.97;5095174;28;20310;-74
2022/06/15 03:13:16;;;;;;;6.20;2.30;;;;;;;-141.29;100.00;58932.97;5095590;28;20214;-73
2022/06/15 03:15:43;;;;;;;3.40;2.30;;;;;;;-141.29;100.00;58932.97;5094716;28;20192;-76
2022/06/15 03:18:11;;;;;;;5.77;2.50;;;;;;;-141.29;100.00;58932.97;5094666;28;20578;-74
2022/06/15 03:20:38;;;;;;;6.00;2.60;;;;;;;-141.29;100.00;58932.97;5094765;28;20219;-73
2022/06/15 03:23:06;;;;;;;4.60;2.60;;;;;;;-141.29;100.00;58932.97;5094756;28;20195;-73
2022/06/15 03:25:33;;;;;;;6.33;2.97;;;;;;;-141.29;100.00;58932.97;5094719;28;20245;-73
2022/06/15 03:28:01;;;;;;;3.77;2.70;;;;;;;-141.29;100.00;58932.97;5093972;28;20191;-73
2022/06/15 03:30:28;;;;;;;3.77;2.73;;;;;;;-141.29;100.00;58932.97;5095051;28;20203;-74
2022/06/15 03:32:55;;;;;;;7.07;3.50;;;;;;;-141.29;100.00;58932.97;5094366;28;20291;-73
2022/06/15 03:35:22;;;;;;;4.87;3.63;;;;;;;-141.29;100.00;58932.97;5094461;28;20192;-74
2022/06/15 03:37:50;;;;;;;8.57;3.20;;;;;;;-141.29;100.00;58932.97;5095267;28;20242;-74
2022/06/15 03:40:18;;;;;;;3.10;2.80;;;;;;;-141.29;100.00;58932.97;5095988;28;20593;-74
2022/06/15 03:42:45;;;;;;;6.63;3.43;;;;;;;-141.29;100.00;58932.97;5094980;28;20195;-74
2022/06/15 03:45:14;;;;;;;7.57;3.70;;;;;;;-141.29;100.00;58932.97;5095323;28;20226;-73
2022/06/15 03:47:41;;;;;;;6.47;3.63;;;;;;;-141.29;100.00;58932.97;5094039;28;20195;-74
2022/06/15 03:50:09;;;;;;;6.17;3.73;;;;;;;-141.29;100.00;58932.97;5094470;28;20560;-73
2022/06/15 03:52:36;;;;;;;6.03;3.50;;;;;;;-141.29;100.00;58932.97;5093906;28;20200;-72
2022/06/15 03:55:03;;;;;;;5.60;4.07;;;;;;;-141.29;100.00;58932.97;5094195;28;20202;-73
2022/06/15 03:57:33;;;;;;;8.30;3.63;;;;;;;-141.29;100.00;58932.97;5093606;28;20221;-73
2022/06/15 04:00:00;;;;;;;10.30;3.40;;;;;;;-141.29;100.00;58932.97;5093924;28;20195;-74
2022/06/15 04:02:27;;;;;;;7.77;3.57;;;;;;;-141.29;100.00;58932.97;5093865;28;20322;-74
2022/06/15 04:04:54;;;;;;;7.60;4.37;;;;;;;-141.29;100.00;58932.97;5093798;28;20199;-73
2022/06/15 04:10:06;;;;;;;6.33;4.03;;;;;;;-141.29;100.00;58932.97;5093405;28;20645;-74
2022/06/15 04:12:35;;;;;;;5.40;3.70;;;;;;;-141.29;100.00;58932.97;5093947;28;20203;-73
2022/06/15 04:15:02;;;;;;;8.47;4.20;;;;;;;-141.29;100.00;58932.97;5093500;28;20231;-76
2022/06/15 04:17:30;;;;;;;6.73;3.60;;;;;;;-141.29;100.00;58932.97;5093571;28;20200;-73
2022/06/15 04:22:42;;;;;;;5.97;3.67;;;;;;;-141.29;100.00;58932.97;5093532;28;20207;-75
2022/06/15 04:25:10;;;;;;;5.23;3.70;;;;;;;-141.29;100.00;58932.97;5093659;28;20196;-74
2022/06/15 04:27:38;;;;;;;7.70;3.60;;;;;;;-141.29;100.00;58932.97;5092981;28;20195;-72
2022/06/15 04:30:06;;;;;;;9.63;4.07;;;;;;;-141.29;100.00;58932.97;5093400;28;20233;-74
2022/06/15 04:32:33;;;;;;;8.57;3.93;;;;;;;-141.29;100.00;58932.97;5093350;28;20203;-73
2022/06/15 04:35:00;;;;;;;10.10;4.20;;;;;;;-141.29;100.00;58932.97;5093312;28;20199;-74
2022/06/15 04:37:27;;;;;;;13.70;4.00;;;;;;;-141.29;100.00;58932.97;5093241;28;20258;-73
2022/06/15 04:39:54;;;;;;;5.03;3.30;;;;;;;-141.29;100.00;58932.97;5092876;28;20670;-74
2022/06/15 04:42:23;;;;;;;5.47;3.80;;;;;;;-141.29;100.00;58932.97;5092715;28;20720;-74
2022/06/15 04:44:51;;;;;;;7.67;3.70;;;;;;;-141.29;100.00;58932.97;5092859;28;20219;-74
2022/06/15 04:47:18;;;;;;;7.03;3.93;;;;;;;-141.29;100.00;58932.97;5093120;28;20664;-73
2022/06/15 04:49:46;;;;;;;9.30;3.67;;;;;;;-141.29;100.00;58932.97;5093053;28;20585;-74
2022/06/15 04:52:13;;;;;;;7.63;3.93;;;;;;;-141.29;100.00;58932.97;5092502;28;20199;-74
2022/06/15 04:54:41;;;;;;;6.90;3.87;;;;;;;-141.29;100.00;58932.97;5092994;28;20196;-73
2022/06/15 04:57:09;;;;;;;5.13;3.60;;;;;;;-141.29;100.00;58932.97;5092655;28;20222;-74
2022/06/15 04:59:36;;;;;;;5.67;3.60;;;;;;;-141.29;100.00;58932.97;5092843;28;20203;-73
2022/06/15 05:02:04;;;;;;;14.13;4.33;;;;;;;-141.29;100.00;58932.97;5092753;28;20219;-73
2022/06/15 05:04:32;;;;;;;17.10;3.80;;;;;;;-141.29;100.00;58932.97;5092224;28;20566;-74
2022/06/15 05:06:59;;;;;;;6.37;4.33;;;;;;;-141.29;100.00;58932.97;5092432;28;20195;-74
2022/06/15 05:09:30;;;;;;;11.03;3.70;;;;;;;-141.29;100.00;58932.97;5092159;28;20195;-75
2022/06/15 05:11:56;;;;;;;6.03;3.40;;;;;;;-141.29;100.00;58932.97;5092394;28;20196;-74
2022/06/15 05:14:24;;;;;;;6.53;3.30;;;;;;;-141.29;100.00;58932.97;5092836;28;20199;-73
2022/06/15 05:16:51;;;;;;;6.27;3.00;;;;;;;-141.29;100.00;58932.97;5092570;28;20215;-75
2022/06/15 05:19:19;;;;;;;4.17;2.97;;;;;;;-141.29;100.00;58932.97;5092571;28;20589;-75
2022/06/15 05:21:47;;;;;;;7.07;3.30;;;;;;;-141.29;100.00;58932.97;5092401;28;20223;-73
2022/06/15 05:24:14;;;;;;;9.10;3.20;;;;;;;-141.29;100.00;58932.97;5092542;28;20203;-74
2022/06/15 05:26:41;;;;;;;6.17;3.07;;;;;;;-141.29;100.00;58932.97;5092969;28;20238;-73
2022/06/15 05:29:08;;;;;;;8.03;3.90;;;;;;;-141.29;100.00;58932.97;5092754;28;20666;-74
2022/06/15 05:31:35;;;;;;;7.47;2.87;;;;;;;-141.29;100.00;58932.97;5092216;28;20191;-73
2022/06/15 05:34:02;;;;;;;7.23;3.10;;;;;;;-141.29;100.00;58932.97;5092346;28;20199;-73
2022/06/15 05:36:35;;;;;;;5.83;2.80;;;;;;;-141.29;100.00;58932.97;5092802;28;20195;-74
2022/06/15 05:39:03;;;;;;;5.67;3.07;;;;;;;-141.29;100.00;58932.97;5092239;28;20231;-73
2022/06/15 05:41:30;;;;;;;6.37;3.20;;;;;;;-141.29;100.00;58932.97;5093795;28;20271;-75
2022/06/15 05:43:57;;;;;;;11.17;2.80;;;;;;;-141.29;100.00;58932.97;5101778;28;20256;-74
2022/06/15 05:46:27;;;;;;;8.70;2.93;;;;;;;-141.29;100.00;58932.97;5092353;28;20223;-73
2022/06/15 05:48:55;;;;;;;8.90;3.70;;;;;;;-141.29;100.00;58932.97;5092416;28;20575;-73
2022/06/15 05:51:22;;;;;;;6.97;2.93;;;;;;;-141.29;100.00;58932.97;5098591;28;20247;-73
2022/06/15 05:53:51;;;;;;;16.57;3.70;;;;;;;-141.29;100.00;58932.97;5098590;28;20232;-73
2022/06/15 05:56:19;;;;;;;10.77;3.30;;;;;;;-141.29;100.00;58932.97;5098568;28;20195;-74
2022/06/15 05:58:47;;;;;;;4.13;2.77;;;;;;;-141.29;100.00;58932.97;5098355;28;20576;-74
2022/06/15 06:01:21;;;;;;;5.47;2.83;;;;;;;-141.29;100.00;58932.97;5098817;28;20231;-73
2022/06/15 06:03:49;;;;;;;7.43;2.90;;;;;;;-141.29;100.00;58932.97;5098556;28;20199;-73
2022/06/15 06:06:17;;;;;;;5.93;2.80;;;;;;;-141.29;100.00;58932.97;5098484;28;20191;-73
2022/06/15 06:08:44;;;;;;;13.43;2.83;;;;;;;-141.29;100.00;58932.97;5098740;28;20195;-73
2022/06/15 06:11:13;;;;;;;13.47;3.20;;;;;;;-141.29;100.00;58932.97;5098515;28;20204;-74
2022/06/15 06:13:41;;;;;;;7.40;2.97;;;;;;;-141.29;100.00;58932.97;5099034;28;20199;-74
2022/06/15 06:16:09;;;;;;;6.80;2.90;;;;;;;-141.29;100.00;58932.97;5098980;28;20249;-75
2022/06/15 06:18:36;;;;;;;6.73;2.77;;;;;;;-141.29;100.00;58932.97;5098452;28;20195;-73
2022/06/15 06:21:05;;;;;;;6.73;2.70;;;;;;;-141.29;100.00;58932.97;5098969;28;20580;-73
2022/06/15 06:23:33;;;;;;;6.97;3.23;;;;;;;-141.29;100.00;58932.97;5099398;28;20589;-75
2022/06/15 06:26:00;;;;;;;4.60;2.50;;;;;;;-141.29;100.00;58932.97;5098896;28;20225;-73
2022/06/15 06:28:31;;;;;;;7.83;2.60;;;;;;;-141.29;100.00;58932.97;5099133;28;20249;-75
2022/06/15 06:31:00;;;;;;;8.87;2.73;;;;;;;-141.29;100.00;58932.97;5098681;28;20200;-74
2022/06/15 06:33:29;;;;;;;7.97;3.23;;;;;;;-141.29;100.00;58932.97;5098834;28;20674;-74
2022/06/15 06:35:58;;;;;;;9.07;3.40;;;;;;;-141.29;100.00;58932.97;5098753;28;20200;-73
2022/06/15 06:38:25;;;;;;;7.73;2.60;;;;;;;-141.29;100.00;58932.97;5098625;28;20273;-74
2022/06/15 06:40:53;;;;;;;6.37;3.00;;;;;;;-141.29;100.00;58932.97;5098269;28;20199;-73
2022/06/15 06:43:20;;;;;;;9.43;2.93;;;;;;;-141.29;100.00;58932.97;5098454;28;20231;-74
2022/06/15 06:45:49;;;;;;;8.10;2.60;;;;;;;-141.29;100.00;58932.97;5098059;28;20227;-73
2022/06/15 06:48:17;;;;;;;3.57;2.50;;;;;;;-141.29;100.00;58932.97;5098732;28;20210;-76
2022/06/15 06:50:45;;;;;;;8.47;2.63;;;;;;;-141.29;100.00;58932.97;5098502;28;20196;-73
2022/06/15 06:53:13;;;;;;;5.90;2.57;;;;;;;-141.29;100.00;58932.97;5098548;28;20188;-75
2022/06/15 06:55:41;;;;;;;11.67;2.90;;;;;;;-141.29;100.00;58932.97;5098641;28;20191;-75
2022/06/15 06:58:09;;;;;;;5.00;2.40;;;;;;;-141.29;100.00;58932.97;5098350;28;20273;-73
2022/06/15 07:00:37;;;;;;;4.63;2.27;;;;;;;-141.29;100.00;58932.97;5097558;28;20203;-74
2022/06/15 07:03:06;;;;;;;11.13;2.80;;;;;;;-141.29;100.00;58932.97;5093849;28;20227;-74
2022/06/15 07:05:35;;;;;;;5.80;2.80;;;;;;;-141.29;100.00;58932.97;5094795;28;20196;-76
2022/06/15 07:08:04;;;;;;;12.53;3.07;;;;;;;-141.29;100.00;58932.97;5095070;28;20199;-74
2022/06/15 07:10:33;;;;;;;6.33;2.50;;;;;;;-141.29;100.00;58932.97;5094893;28;20203;-75
2022/06/15 07:13:00;;;;;;;6.07;3.20;;;;;;;-141.29;100.00;58932.97;5094621;28;20202;-75
2022/06/15 07:15:27;;;;;;;7.73;3.07;;;;;;;-141.29;100.00;58932.97;5094433;28;20584;-74
2022/06/15 07:17:57;;;;;;;5.43;2.77;;;;;;;-141.29;100.00;58932.97;5094418;28;20234;-74
2022/06/15 07:20:26;;;;;;;7.40;3.03;;;;;;;-141.29;100.00;58932.97;5094693;28;20200;-74
2022/06/15 07:22:54;;;;;;;5.13;2.57;;;;;;;-141.29;100.00;58932.97;5095615;28;20227;-72
2022/06/15 07:25:21;;;;;;;5.37;2.60;;;;;;;-141.29;100.00;58932.97;5096541;28;20562;-74
2022/06/15 07:27:49;;;;;;;11.50;2.97;;;;;;;-141.29;100.00;58932.97;5094474;28;20192;-73
2022/06/15 07:30:19;;;;;;;6.53;2.63;;;;;;;-141.29;100.00;58932.97;5094486;28;20192;-74
2022/06/15 07:32:46;;;;;;;4.30;2.23;;;;;;;-141.29;100.00;58932.97;5094731;28;20275;-73
2022/06/15 07:35:16;;;;;;;6.13;2.40;;;;;;;-141.29;100.00;58932.97;5094083;28;20202;-74
2022/06/15 07:37:46;;;;;;;4.43;2.20;;;;;;;-141.29;100.00;58932.97;5093866;28;20742;-73
2022/06/15 07:40:14;;;;;;;5.33;2.50;;;;;;;-141.29;100.00;58932.97;5097538;28;20195;-74
2022/06/15 07:42:42;;;;;;;6.47;3.00;;;;;;;-141.29;100.00;58932.97;5098202;28;20264;-75
2022/06/15 07:45:11;;;;;;;3.43;2.23;;;;;;;-141.29;100.00;58932.97;5095258;28;20227;-75
2022/06/15 07:50:22;;;;;;;4.43;2.10;;;;;;;-141.29;100.00;58932.97;5093820;28;20210;-74
2022/06/15 07:52:52;;;;;;;3.50;2.00;;;;;;;-141.29;100.00;58932.97;5093571;28;20727;-75
2022/06/15 07:55:25;;;;;;;4.27;2.07;;;;;;;-141.29;100.00;58932.97;5094549;28;20572;-73
2022/06/15 07:57:53;;;;;;;3.63;2.20;;;;;;;-141.29;100.00;58932.97;5093670;28;20192;-75
2022/06/15 08:00:21;;;;;;;5.07;2.40;;;;;;;-141.29;100.00;58932.97;5093539;28;20195;-74
2022/06/15 08:02:49;;;;;;;5.13;2.00;;;;;;;-141.29;100.00;58932.97;5093585;28;20720;-74
2022/06/15 08:05:16;;;;;;;5.57;1.97;;;;;;;-141.29;100.00;58932.97;5093637;28;20206;-74
2022/06/15 08:07:47;;;;;;;3.03;2.07;;;;;;;-141.29;100.00;58932.97;5093303;28;20200;-73
2022/06/15 08:10:18;;;;;;;3.03;1.87;;;;;;;-141.29;100.00;58932.97;5093653;28;20196;-74
2022/06/15 08:12:46;;;;;;;4.10;2.43;;;;;;;-141.29;100.00;58932.97;5093236;28;20655;-74
2022/06/15 08:15:14;;;;;;;2.90;2.10;;;;;;;-141.29;100.00;58932.97;5093425;28;20256;-73
2022/06/15 08:17:45;;;;;;;4.37;2.27;;;;;;;-141.29;100.00;58932.97;5093593;28;20200;-74
2022/06/15 08:20:17;;;;;;;5.50;2.40;;;;;;;-141.29;100.00;58932.97;5094101;28;20191;-75
2022/06/15 08:22:48;;;;;;;3.27;2.23;;;;;;;-141.29;100.00;58932.97;5093265;28;20230;-75
2022/06/15 08:25:22;;;;;;;7.83;2.50;;;;;;;-141.29;100.00;58932.97;5093586;28;20256;-73
2022/06/15 08:27:50;;;;;;;4.93;2.70;;;;;;;-141.29;100.00;58932.97;5093232;28;20199;-74
2022/06/15 08:30:18;;;;;;;2.50;2.13;;;;;;;-141.29;100.00;58932.97;5092870;28;20738;-73
2022/06/15 08:32:45;;;;;;;5.60;2.53;;;;;;;-141.29;100.00;58932.97;5092899;28;20200;-76
2022/06/15 08:35:13;;;;;;;4.30;2.60;;;;;;;-141.29;100.00;58932.97;5092944;28;20196;-74
2022/06/15 08:37:41;;;;;;;9.27;2.50;;;;;;;-141.29;100.00;58932.97;5093017;28;20716;-74
2022/06/15 08:40:10;;;;;;;5.10;2.00;;;;;;;-141.29;100.00;58932.97;5092697;28;20253;-74
2022/06/15 08:42:48;;;;;;;3.63;2.03;;;;;;;-141.29;100.00;58932.97;5092630;28;20753;-73
2022/06/15 08:45:22;;;;;;;2.80;2.20;;;;;;;-141.29;100.00;58932.97;5092859;28;20222;-75
2022/06/15 08:48:08;;;;;;;2.80;2.20;;;;;;;-141.29;100.00;58932.97;5093427;28;20206;-74
2022/06/15 08:50:38;;;;;;;8.73;2.70;;;;;;;-141.29;100.00;58932.97;5092349;28;20196;-74
2022/06/15 08:53:14;;;;;;;9.50;2.77;;;;;;;-141.29;100.00;58932.97;5092640;28;20580;-74
2022/06/15 08:55:46;;;;;;;8.43;2.17;;;;;;;-141.29;100.00;58932.97;5092241;28;20204;-74
2022/06/15 08:58:22;;;;;;;4.83;2.33;;;;;;;-141.29;100.00;58932.97;5092484;28;20288;-73
2022/06/15 09:00:53;;;;;;;3.07;2.50;;;;;;;-141.29;100.00;58932.97;5092631;28;20195;-75
2022/06/15 09:03:28;;;;;;;6.63;2.53;;;;;;;-141.29;100.00;58932.97;5092529;28;20242;-76
2022/06/15 09:06:09;;;;;;;4.00;2.30;;;;;;;-141.29;100.00;58932.97;5092546;28;20195;-74
2022/06/15 09:08:52;;;;;;;3.70;2.30;;;;;;;-141.29;100.00;58932.97;5092440;28;20200;-75
2022/06/15 09:11:29;;;;;;;4.13;2.30;;;;;;;-141.29;100.00;58932.97;5092150;28;20288;-76
2022/06/15 09:14:11;;;;;;;4.13;2.57;;;;;;;-141.29;100.00;58932.97;5092167;28;20206;-76
2022/06/15 09:16:47;;;;;;;4.73;2.30;;;;;;;-141.29;100.00;58932.97;5091795;28;20203;-73
2022/06/15 09:19:19;;;;;;;4.07;2.60;;;;;;;-141.29;100.00;58932.97;5092515;28;20659;-74
2022/06/15 09:21:52;;;;;;;6.93;2.30;;;;;;;-141.29;100.00;58932.97;5092664;28;20281;-74
2022/06/15 09:24:25;;;;;;;8.03;2.70;;;;;;;-141.29;100.00;58932.97;5091351;28;20200;-74
2022/06/15 09:26:54;;;;;;;5.50;2.40;;;;;;;-141.29;100.00;58932.97;5092288;28;20632;-75
2022/06/15 09:29:25;;;;;;;6.10;2.50;;;;;;;-141.29;100.00;58932.97;5091764;28;20218;-75
2022/06/15 09:31:57;;;;;;;3.90;2.40;;;;;;;-141.29;100.00;58932.97;5092498;28;20200;-75
2022/06/15 09:34:31;;;;;;;2.70;2.30;;;;;;;-141.29;100.00;58932.97;5092295;28;20199;-72
2022/06/15 09:36:59;;;;;;;6.60;2.67;;;;;;;-141.29;100.00;58932.97;5091769;28;20202;-74
2022/06/15 09:39:29;;;;;;;5.57;2.60;;;;;;;-141.29;100.00;58932.97;5092039;28;20201;-74
2022/06/15 09:42:07;;;;;;;3.37;2.40;;;;;;;-141.29;100.00;58932.97;5084687;28;20645;-74
2022/06/15 09:44:45;;;;;;;4.73;2.40;;;;;;;-141.29;100.00;58932.97;5091626;28;20203;-74
2022/06/15 09:47:20;;;;;;;5.63;2.57;;;;;;;-141.29;100.00;58932.97;5092188;28;20234;-74
2022/06/15 09:49:56;;;;;;;3.77;2.33;;;;;;;-141.29;100.00;58932.97;5092260;28;20199;-74
2022/06/15 09:52:33;;;;;;;4.60;2.30;;;;;;;-141.29;100.00;58932.97;5091967;28;20195;-74
2022/06/15 09:55:07;;;;;;;4.87;2.30;;;;;;;-141.29;100.00;58932.97;5091901;28;20207;-75
2022/06/15 09:57:35;;;;;;;13.50;3.03;;;;;;;-141.29;100.00;58932.97;5091694;28;20204;-74
2022/06/15 10:00:06;;;;;;;3.03;2.20;;;;;;;-141.29;100.00;58932.97;5091696;28;20227;-74
2022/06/15 10:02:37;;;;;;;7.43;2.30;;;;;;;-141.29;100.00;58932.97;5091559;28;20237;-74
2022/06/15 10:05:15;;;;;;;3.53;2.40;;;;;;;-141.29;100.00;58932.97;5091884;28;20198;-74
2022/06/15 10:07:44;;;;;;;5.63;2.40;;;;;;;-141.29;100.00;58932.97;5091894;28;20203;-74
2022/06/15 10:10:19;;;;;;;2.87;2.53;;;;;;;-141.29;100.00;58932.97;5091624;28;20227;-74
2022/06/15 10:12:58;;;;;;;6.63;2.60;;;;;;;-141.29;100.00;58932.97;5092191;28;20278;-74
2022/06/15 10:15:49;;;;;;;9.50;2.60;;;;;;;-141.29;100.00;58932.97;5091450;28;20678;-75
2022/06/15 10:18:20;;;;;;;62.03;6.87;;;;;;;-141.29;100.00;58932.97;5091339;28;20199;-75
2022/06/15 10:21:04;;;;;;;4.50;2.70;;;;;;;-141.29;100.00;58932.97;5091770;28;20199;-74
2022/06/15 10:23:39;;;;;;;6.73;2.70;;;;;;;-141.29;100.00;58932.97;5091610;28;20231;-74
2022/06/15 10:26:10;;;;;;;4.77;2.70;;;;;;;-141.29;100.00;58932.97;5091629;28;20199;-73
2022/06/15 10:28:40;;;;;;;7.10;2.40;;;;;;;-141.29;100.00;58932.97;5091708;28;20655;-74
2022/06/15 10:31:14;;;;;;;4.73;2.20;;;;;;;-141.29;100.00;58932.97;5091606;28;20200;-73
2022/06/15 10:33:45;;;;;;;3.20;2.50;;;;;;;-141.29;100.00;58932.97;5091517;28;20191;-75
2022/06/15 10:36:23;;;;;;;5.60;2.67;;;;;;;-141.29;100.00;58932.97;5093232;28;20200;-74
2022/06/15 10:38:55;;;;;;;6.17;2.70;;;;;;;-141.29;100.00;58932.97;5095013;28;20231;-74
2022/06/15 10:41:48;;;;;;;6.90;2.93;;;;;;;-141.29;100.00;58932.97;5095190;28;20690;-74
2022/06/15 10:44:16;;;;;;;5.37;2.40;;;;;;;-141.29;100.00;58932.97;5077678;28;20235;-74
2022/06/15 10:46:53;;;;;;;4.30;2.27;;;;;;;-141.29;100.00;58932.97;5095121;28;20220;-74
2022/06/15 10:49:21;;;;;;;6.90;2.63;;;;;;;-141.29;100.00;58932.97;5095252;28;20562;-74
2022/06/15 10:51:50;;;;;;;5.93;2.70;;;;;;;-141.29;100.00;58932.97;5095465;28;20218;-74
2022/06/15 10:54:29;;;;;;;3.30;2.23;;;;;;;-141.29;100.00;58932.97;5094722;28;20200;-72
2022/06/15 11:02:46;;;;;;;4.47;2.53;;;;;;;-141.29;100.00;58932.97;5095978;28;20238;-74
2022/06/15 11:05:16;;;;;;;3.83;2.07;;;;;;;-141.29;100.00;58932.97;5096734;28;20207;-73
2022/06/15 11:07:47;;;;;;;8.37;2.40;;;;;;;-141.29;100.00;58932.97;5094819;28;20195;-76
2022/06/15 11:10:26;;;;;;;2.83;2.00;;;;;;;-141.29;100.00;58932.97;5094616;28;20676;-74
2022/06/15 11:12:55;;;;;;;2.57;1.90;;;;;;;-141.29;100.00;58932.97;5094572;28;20214;-74
2022/06/15 11:18:27;;;;;;;10.43;2.43;;;;;;;-141.29;100.00;58932.97;5094784;28;20202;-74
2022/06/15 11:20:59;;;;;;;7.50;2.47;;;;;;;-141.29;100.00;58932.97;5095361;28;20192;-75
2022/06/15 11:23:35;;;;;;;6.13;2.43;;;;;;;-141.29;100.00;58932.97;5095158;28;20615;-74
2022/06/15 11:26:52;;;;;;;13.03;3.70;;;;;;;-141.29;100.00;58932.97;5095194;28;20636;-75
2022/06/15 11:28:56;;;;;;;2.77;2.23;;;;;;;-141.29;100.00;58932.97;5093648;28;20200;-74
2022/06/15 11:31:28;;;;;;;3.07;2.40;;;;;;;-141.29;100.00;58932.97;5094195;28;20196;-74
2022/06/15 11:34:03;;;;;;;8.93;2.30;;;;;;;-141.29;100.00;58932.97;5094230;28;20266;-74
2022/06/15 11:36:35;;;;;;;12.13;2.50;;;;;;;-141.29;100.00;58932.97;5094958;28;20224;-74
2022/06/15 11:39:11;;;;;;;4.67;2.10;;;;;;;-141.29;100.00;58932.97;5096131;28;20231;-74
2022/06/15 11:41:44;;;;;;;9.40;2.90;;;;;;;-141.29;100.00;58932.97;5097607;28;20291;-74